sensor_id;sensor_type;location;lat;lon;timestamp;pressure;altitude;pressure_sealevel;temperature;humidity
69035;BME280;56091;55.756;37.412;2022-07-31T00:00:41;99357.84;;;16.79;55.64
69035;BME280;56091;55.756;37.412;2022-07-31T00:05:45;99344.00;;;16.56;54.95
69035;BME280;56091;55.756;37.412;2022-07-31T00:10:46;99368.72;;;16.60;55.04
69035;BME280;56091;55.756;37.412;2022-07-31T00:15:47;99353.03;;;16.52;55.07
69035;BME280;56091;55.756;37.412;2022-07-31T00:20:48;99333.88;;;16.38;55.09
69035;BME280;56091;55.756;37.412;2022-07-31T00:25:49;99328.59;;;16.28;55.43
69035;BME280;56091;55.756;37.412;2022-07-31T00:30:50;99356.97;;;16.40;55.62
69035;BME280;56091;55.756;37.412;2022-07-31T00:35:54;99352.19;;;16.32;56.23
69035;BME280;56091;55.756;37.412;2022-07-31T00:40:55;99358.44;;;16.33;55.78
69035;BME280;56091;55.756;37.412;2022-07-31T00:45:59;99342.94;;;16.33;55.09
69035;BME280;56091;55.756;37.412;2022-07-31T00:51:00;99344.84;;;16.33;55.24
69035;BME280;56091;55.756;37.412;2022-07-31T00:56:01;99347.25;;;16.34;55.46
69035;BME280;56091;55.756;37.412;2022-07-31T01:01:02;99315.47;;;16.11;55.38
69035;BME280;56091;55.756;37.412;2022-07-31T01:06:05;99354.44;;;16.25;55.14
69035;BME280;56091;55.756;37.412;2022-07-31T01:11:40;99353.88;;;16.28;55.17
69035;BME280;56091;55.756;37.412;2022-07-31T01:16:46;99358.53;;;16.28;55.48
69035;BME280;56091;55.756;37.412;2022-07-31T01:27:18;99344.50;;;16.15;56.39
69035;BME280;56091;55.756;37.412;2022-07-31T01:32:31;99349.47;;;16.08;56.23
69035;BME280;56091;55.756;37.412;2022-07-31T01:37:40;99359.59;;;16.03;57.68
69035;BME280;56091;55.756;37.412;2022-07-31T01:42:46;99357.25;;;15.96;57.19
69035;BME280;56091;55.756;37.412;2022-07-31T01:47:51;99351.28;;;15.94;57.23
69035;BME280;56091;55.756;37.412;2022-07-31T01:52:56;99340.22;;;15.85;57.59
69035;BME280;56091;55.756;37.412;2022-07-31T01:58:03;99356.47;;;15.90;57.44
69035;BME280;56091;55.756;37.412;2022-07-31T02:03:08;99350.84;;;15.81;57.88
69035;BME280;56091;55.756;37.412;2022-07-31T02:08:14;99348.09;;;15.87;57.76
69035;BME280;56091;55.756;37.412;2022-07-31T02:13:21;99358.97;;;15.87;58.08
69035;BME280;56091;55.756;37.412;2022-07-31T02:18:27;99353.28;;;15.83;58.31
69035;BME280;56091;55.756;37.412;2022-07-31T02:23:53;99344.59;;;15.81;58.22
69035;BME280;56091;55.756;37.412;2022-07-31T02:28:58;99336.69;;;15.85;58.44
69035;BME280;56091;55.756;37.412;2022-07-31T02:34:00;99343.00;;;16.04;59.16
69035;BME280;56091;55.756;37.412;2022-07-31T02:39:01;99315.00;;;16.04;58.10
69035;BME280;56091;55.756;37.412;2022-07-31T02:44:06;99349.69;;;16.36;57.64
69035;BME280;56091;55.756;37.412;2022-07-31T02:49:08;99339.13;;;16.53;57.15
69035;BME280;56091;55.756;37.412;2022-07-31T02:54:09;99345.81;;;16.85;56.21
69035;BME280;56091;55.756;37.412;2022-07-31T02:59:10;99333.72;;;16.91;56.59
69035;BME280;56091;55.756;37.412;2022-07-31T03:04:30;99338.19;;;17.01;55.88
69035;BME280;56091;55.756;37.412;2022-07-31T03:09:31;99353.06;;;17.09;57.65
69035;BME280;56091;55.756;37.412;2022-07-31T03:14:53;99343.59;;;17.06;57.91
69035;BME280;56091;55.756;37.412;2022-07-31T03:19:54;99359.25;;;17.14;56.95
69035;BME280;56091;55.756;37.412;2022-07-31T03:25:00;99342.47;;;17.07;57.35
69035;BME280;56091;55.756;37.412;2022-07-31T03:30:04;99338.69;;;17.22;56.75
69035;BME280;56091;55.756;37.412;2022-07-31T03:35:06;99351.25;;;17.37;57.50
69035;BME280;56091;55.756;37.412;2022-07-31T03:40:08;99345.22;;;17.40;55.76
69035;BME280;56091;55.756;37.412;2022-07-31T03:45:11;99360.63;;;17.64;55.95
69035;BME280;56091;55.756;37.412;2022-07-31T03:50:14;99359.97;;;17.72;54.42
69035;BME280;56091;55.756;37.412;2022-07-31T03:55:15;99345.91;;;17.79;55.65
69035;BME280;56091;55.756;37.412;2022-07-31T04:00:16;99364.56;;;18.04;55.21
69035;BME280;56091;55.756;37.412;2022-07-31T04:05:18;99366.50;;;18.18;53.77
69035;BME280;56091;55.756;37.412;2022-07-31T04:10:20;99368.94;;;18.33;53.65
69035;BME280;56091;55.756;37.412;2022-07-31T04:15:21;99370.84;;;18.46;53.52
69035;BME280;56091;55.756;37.412;2022-07-31T04:20:28;99368.28;;;18.64;53.47
69035;BME280;56091;55.756;37.412;2022-07-31T04:25:31;99372.50;;;18.70;53.40
69035;BME280;56091;55.756;37.412;2022-07-31T04:30:43;99352.16;;;18.76;52.64
69035;BME280;56091;55.756;37.412;2022-07-31T04:35:44;99359.22;;;18.91;52.71
69035;BME280;56091;55.756;37.412;2022-07-31T04:40:48;99365.41;;;19.19;51.95
69035;BME280;56091;55.756;37.412;2022-07-31T04:45:49;99373.44;;;19.38;51.84
69035;BME280;56091;55.756;37.412;2022-07-31T04:50:50;99357.09;;;19.47;51.28
69035;BME280;56091;55.756;37.412;2022-07-31T04:55:51;99359.81;;;19.69;50.76
69035;BME280;56091;55.756;37.412;2022-07-31T05:01:11;99361.56;;;19.97;50.69
69035;BME280;56091;55.756;37.412;2022-07-31T05:06:12;99351.34;;;20.20;49.93
69035;BME280;56091;55.756;37.412;2022-07-31T05:11:13;99358.69;;;20.42;48.21
69035;BME280;56091;55.756;37.412;2022-07-31T05:16:24;99355.16;;;20.41;49.10
69035;BME280;56091;55.756;37.412;2022-07-31T05:21:27;99342.09;;;20.56;48.66
69035;BME280;56091;55.756;37.412;2022-07-31T05:26:49;99339.59;;;20.85;47.67
69035;BME280;56091;55.756;37.412;2022-07-31T05:31:51;99337.66;;;21.03;46.90
69035;BME280;56091;55.756;37.412;2022-07-31T05:36:54;99331.38;;;21.12;44.38
69035;BME280;56091;55.756;37.412;2022-07-31T05:47:01;99298.28;;;21.17;43.26
69035;BME280;56091;55.756;37.412;2022-07-31T05:52:05;99336.16;;;21.41;41.46
69035;BME280;56091;55.756;37.412;2022-07-31T05:57:06;99324.06;;;21.42;42.09
69035;BME280;56091;55.756;37.412;2022-07-31T06:02:15;99335.50;;;21.61;41.56
69035;BME280;56091;55.756;37.412;2022-07-31T06:07:36;99301.81;;;21.35;38.20
69035;BME280;56091;55.756;37.412;2022-07-31T06:12:38;99325.50;;;21.57;38.06
69035;BME280;56091;55.756;37.412;2022-07-31T06:17:42;99331.97;;;21.61;38.92
69035;BME280;56091;55.756;37.412;2022-07-31T06:22:52;99325.63;;;21.69;38.33
69035;BME280;56091;55.756;37.412;2022-07-31T06:27:53;99300.09;;;21.77;37.84
69035;BME280;56091;55.756;37.412;2022-07-31T06:32:54;99339.56;;;22.02;36.85
69035;BME280;56091;55.756;37.412;2022-07-31T06:37:55;99335.19;;;22.10;33.56
69035;BME280;56091;55.756;37.412;2022-07-31T06:42:56;99315.50;;;21.99;35.13
69035;BME280;56091;55.756;37.412;2022-07-31T06:48:17;99305.28;;;21.70;36.19
69035;BME280;56091;55.756;37.412;2022-07-31T06:53:29;99308.94;;;21.83;36.09
69035;BME280;56091;55.756;37.412;2022-07-31T06:58:35;99314.66;;;22.08;36.07
69035;BME280;56091;55.756;37.412;2022-07-31T07:03:37;99330.63;;;22.44;34.95
69035;BME280;56091;55.756;37.412;2022-07-31T07:08:38;99320.69;;;22.31;34.55
69035;BME280;56091;55.756;37.412;2022-07-31T07:13:39;99327.09;;;22.44;34.43
69035;BME280;56091;55.756;37.412;2022-07-31T07:18:41;99291.31;;;22.52;33.71
69035;BME280;56091;55.756;37.412;2022-07-31T07:23:42;99320.69;;;22.81;31.32
69035;BME280;56091;55.756;37.412;2022-07-31T07:29:16;99322.81;;;22.76;30.42
69035;BME280;56091;55.756;37.412;2022-07-31T07:34:18;99300.31;;;23.04;29.63
69035;BME280;56091;55.756;37.412;2022-07-31T07:39:21;99321.84;;;23.35;30.71
69035;BME280;56091;55.756;37.412;2022-07-31T07:44:24;99306.44;;;23.22;30.76
69035;BME280;56091;55.756;37.412;2022-07-31T07:49:32;99311.63;;;23.23;30.77
69035;BME280;56091;55.756;37.412;2022-07-31T07:54:57;99306.66;;;22.95;30.89
69035;BME280;56091;55.756;37.412;2022-07-31T08:00:28;99302.97;;;23.12;30.71
69035;BME280;56091;55.756;37.412;2022-07-31T08:05:34;99306.16;;;22.60;30.71
69035;BME280;56091;55.756;37.412;2022-07-31T08:10:41;99296.59;;;22.36;30.71
69035;BME280;56091;55.756;37.412;2022-07-31T08:15:51;99295.31;;;22.34;30.21
69035;BME280;56091;55.756;37.412;2022-07-31T08:21:01;99228.31;;;22.26;29.89
69035;BME280;56091;55.756;37.412;2022-07-31T08:26:04;99305.84;;;23.16;29.06
69035;BME280;56091;55.756;37.412;2022-07-31T08:31:07;99276.75;;;23.15;29.11
69035;BME280;56091;55.756;37.412;2022-07-31T08:36:19;99284.66;;;23.62;28.49
69035;BME280;56091;55.756;37.412;2022-07-31T08:41:20;99291.75;;;23.51;28.00
69035;BME280;56091;55.756;37.412;2022-07-31T08:46:24;99289.13;;;23.67;27.65
69035;BME280;56091;55.756;37.412;2022-07-31T08:51:25;99290.50;;;23.73;27.72
69035;BME280;56091;55.756;37.412;2022-07-31T08:56:46;99277.94;;;23.96;27.73
69035;BME280;56091;55.756;37.412;2022-07-31T09:01:51;99282.50;;;24.29;26.50
69035;BME280;56091;55.756;37.412;2022-07-31T09:06:56;99259.00;;;24.07;26.95
69035;BME280;56091;55.756;37.412;2022-07-31T09:12:00;99246.59;;;24.13;26.93
69035;BME280;56091;55.756;37.412;2022-07-31T09:17:33;99266.69;;;24.14;28.14
69035;BME280;56091;55.756;37.412;2022-07-31T09:22:37;99247.25;;;23.49;29.44
69035;BME280;56091;55.756;37.412;2022-07-31T09:27:39;99271.88;;;23.33;30.32
69035;BME280;56091;55.756;37.412;2022-07-31T09:32:40;99285.81;;;23.15;29.58
69035;BME280;56091;55.756;37.412;2022-07-31T09:37:52;99282.38;;;23.18;29.71
69035;BME280;56091;55.756;37.412;2022-07-31T09:42:55;99277.63;;;23.40;29.58
69035;BME280;56091;55.756;37.412;2022-07-31T09:48:07;99267.16;;;23.91;28.01
69035;BME280;56091;55.756;37.412;2022-07-31T09:53:12;99263.13;;;24.79;27.27
69035;BME280;56091;55.756;37.412;2022-07-31T09:58:19;99275.88;;;25.56;26.17
69035;BME280;56091;55.756;37.412;2022-07-31T10:03:21;99278.66;;;26.03;25.42
69035;BME280;56091;55.756;37.412;2022-07-31T10:08:25;99266.56;;;26.27;24.79
69035;BME280;56091;55.756;37.412;2022-07-31T10:13:48;99268.56;;;26.46;24.12
69035;BME280;56091;55.756;37.412;2022-07-31T10:18:55;99266.00;;;26.73;23.00
69035;BME280;56091;55.756;37.412;2022-07-31T10:24:31;99259.00;;;26.24;25.01
69035;BME280;56091;55.756;37.412;2022-07-31T10:29:35;99258.25;;;25.92;25.28
69035;BME280;56091;55.756;37.412;2022-07-31T10:34:38;99271.69;;;25.78;25.40
69035;BME280;56091;55.756;37.412;2022-07-31T10:39:57;99270.75;;;26.21;24.61
69035;BME280;56091;55.756;37.412;2022-07-31T10:45:12;99259.53;;;26.14;24.91
69035;BME280;56091;55.756;37.412;2022-07-31T10:50:24;99260.81;;;25.85;24.95
69035;BME280;56091;55.756;37.412;2022-07-31T10:55:44;99256.28;;;25.77;25.46
69035;BME280;56091;55.756;37.412;2022-07-31T11:00:51;99254.13;;;25.38;25.18
69035;BME280;56091;55.756;37.412;2022-07-31T11:05:58;99252.00;;;25.03;26.24
69035;BME280;56091;55.756;37.412;2022-07-31T11:11:33;99245.69;;;24.74;26.65
69035;BME280;56091;55.756;37.412;2022-07-31T11:16:53;99248.00;;;24.72;26.26
69035;BME280;56091;55.756;37.412;2022-07-31T11:22:14;99246.41;;;24.59;26.41
69035;BME280;56091;55.756;37.412;2022-07-31T11:27:15;99227.69;;;24.65;26.37
69035;BME280;56091;55.756;37.412;2022-07-31T11:32:16;99217.50;;;24.41;26.97
69035;BME280;56091;55.756;37.412;2022-07-31T11:37:22;99247.13;;;24.31;27.56
69035;BME280;56091;55.756;37.412;2022-07-31T11:42:24;99237.41;;;24.22;27.93
69035;BME280;56091;55.756;37.412;2022-07-31T11:47:39;99230.13;;;24.42;27.88
69035;BME280;56091;55.756;37.412;2022-07-31T11:52:41;99235.03;;;24.89;27.83
69035;BME280;56091;55.756;37.412;2022-07-31T11:57:43;99245.22;;;25.29;26.40
69035;BME280;56091;55.756;37.412;2022-07-31T12:02:45;99245.13;;;25.89;25.06
69035;BME280;56091;55.756;37.412;2022-07-31T12:07:46;99235.44;;;26.50;25.50
69035;BME280;56091;55.756;37.412;2022-07-31T12:12:47;99217.09;;;26.77;24.76
69035;BME280;56091;55.756;37.412;2022-07-31T12:17:59;99247.88;;;27.18;24.68
69035;BME280;56091;55.756;37.412;2022-07-31T12:23:01;99231.47;;;27.06;23.47
69035;BME280;56091;55.756;37.412;2022-07-31T12:28:03;99218.41;;;27.06;23.65
69035;BME280;56091;55.756;37.412;2022-07-31T12:33:05;99226.25;;;26.62;23.60
69035;BME280;56091;55.756;37.412;2022-07-31T12:38:07;99230.19;;;26.25;23.90
69035;BME280;56091;55.756;37.412;2022-07-31T12:43:12;99230.50;;;26.40;23.79
69035;BME280;56091;55.756;37.412;2022-07-31T12:48:14;99223.81;;;26.99;26.15
69035;BME280;56091;55.756;37.412;2022-07-31T12:53:15;99205.47;;;27.34;26.87
69035;BME280;56091;55.756;37.412;2022-07-31T12:58:16;99226.25;;;26.81;28.15
69035;BME280;56091;55.756;37.412;2022-07-31T13:03:17;99227.91;;;26.47;28.20
69035;BME280;56091;55.756;37.412;2022-07-31T13:08:18;99232.31;;;27.30;27.11
69035;BME280;56091;55.756;37.412;2022-07-31T13:13:18;99198.22;;;26.83;27.73
69035;BME280;56091;55.756;37.412;2022-07-31T13:18:22;99214.69;;;26.76;27.46
69035;BME280;56091;55.756;37.412;2022-07-31T13:23:23;99216.75;;;26.24;28.49
69035;BME280;56091;55.756;37.412;2022-07-31T13:28:24;99194.41;;;26.33;28.04
69035;BME280;56091;55.756;37.412;2022-07-31T13:33:25;99191.53;;;26.64;27.70
69035;BME280;56091;55.756;37.412;2022-07-31T13:38:26;99195.53;;;28.06;25.63
69035;BME280;56091;55.756;37.412;2022-07-31T13:43:27;99190.13;;;31.35;21.16
69035;BME280;56091;55.756;37.412;2022-07-31T13:48:28;99196.09;;;31.40;21.26
69035;BME280;56091;55.756;37.412;2022-07-31T13:53:29;99196.94;;;33.98;18.19
69035;BME280;56091;55.756;37.412;2022-07-31T13:58:30;99183.03;;;38.33;14.27
69035;BME280;56091;55.756;37.412;2022-07-31T14:03:31;99172.97;;;41.24;11.57
69035;BME280;56091;55.756;37.412;2022-07-31T14:08:32;99187.41;;;42.83;10.39
69035;BME280;56091;55.756;37.412;2022-07-31T14:13:33;99181.56;;;43.30;9.59
69035;BME280;56091;55.756;37.412;2022-07-31T14:18:33;99147.69;;;43.65;9.41
69035;BME280;56091;55.756;37.412;2022-07-31T14:23:34;99169.69;;;37.92;13.43
69035;BME280;56091;55.756;37.412;2022-07-31T14:28:38;99168.09;;;34.01;16.62
69035;BME280;56091;55.756;37.412;2022-07-31T14:33:42;99160.84;;;34.76;16.23
69035;BME280;56091;55.756;37.412;2022-07-31T14:38:43;99166.94;;;33.57;17.64
69035;BME280;56091;55.756;37.412;2022-07-31T14:43:44;99163.84;;;35.40;15.25
69035;BME280;56091;55.756;37.412;2022-07-31T14:48:45;99144.28;;;39.40;12.96
69035;BME280;56091;55.756;37.412;2022-07-31T14:53:46;99138.97;;;39.90;11.58
69035;BME280;56091;55.756;37.412;2022-07-31T14:58:47;99155.97;;;40.43;11.36
69035;BME280;56091;55.756;37.412;2022-07-31T15:03:48;99152.50;;;42.07;10.07
69035;BME280;56091;55.756;37.412;2022-07-31T15:08:48;99161.41;;;42.94;9.34
69035;BME280;56091;55.756;37.412;2022-07-31T15:13:52;99151.09;;;40.21;11.03
69035;BME280;56091;55.756;37.412;2022-07-31T15:18:53;99146.66;;;39.41;11.79
69035;BME280;56091;55.756;37.412;2022-07-31T15:23:54;99158.31;;;37.00;13.98
69035;BME280;56091;55.756;37.412;2022-07-31T15:28:55;99167.91;;;39.08;12.14
69035;BME280;56091;55.756;37.412;2022-07-31T15:33:56;99166.56;;;38.99;12.06
69035;BME280;56091;55.756;37.412;2022-07-31T15:38:57;99143.66;;;38.17;12.37
69035;BME280;56091;55.756;37.412;2022-07-31T15:43:58;99164.03;;;37.29;13.76
69035;BME280;56091;55.756;37.412;2022-07-31T15:49:00;99154.91;;;34.98;16.01
69035;BME280;56091;55.756;37.412;2022-07-31T15:54:00;99168.13;;;33.11;18.01
69035;BME280;56091;55.756;37.412;2022-07-31T15:59:01;99171.69;;;30.65;21.97
69035;BME280;56091;55.756;37.412;2022-07-31T16:04:02;99159.69;;;28.84;24.31
69035;BME280;56091;55.756;37.412;2022-07-31T16:09:03;99179.81;;;27.87;25.93
69035;BME280;56091;55.756;37.412;2022-07-31T16:14:04;99178.34;;;27.66;26.50
69035;BME280;56091;55.756;37.412;2022-07-31T16:19:05;99167.81;;;27.52;26.87
69035;BME280;56091;55.756;37.412;2022-07-31T16:24:06;99180.47;;;27.07;27.58
69035;BME280;56091;55.756;37.412;2022-07-31T16:29:07;99189.03;;;26.40;28.92
69035;BME280;56091;55.756;37.412;2022-07-31T16:34:07;99186.50;;;25.96;29.87
69035;BME280;56091;55.756;37.412;2022-07-31T16:39:09;99168.53;;;25.38;30.72
69035;BME280;56091;55.756;37.412;2022-07-31T16:44:11;99183.06;;;25.51;30.85
69035;BME280;56091;55.756;37.412;2022-07-31T16:49:11;99188.66;;;25.55;31.26
69035;BME280;56091;55.756;37.412;2022-07-31T16:54:12;99195.25;;;25.34;31.29
69035;BME280;56091;55.756;37.412;2022-07-31T16:59:13;99191.31;;;25.19;31.65
69035;BME280;56091;55.756;37.412;2022-07-31T17:04:14;99205.53;;;25.05;32.20
69035;BME280;56091;55.756;37.412;2022-07-31T17:09:15;99219.66;;;24.88;32.71
69035;BME280;56091;55.756;37.412;2022-07-31T17:14:17;99201.31;;;24.39;33.38
69035;BME280;56091;55.756;37.412;2022-07-31T17:19:20;99209.53;;;24.11;33.73
69035;BME280;56091;55.756;37.412;2022-07-31T17:24:21;99208.38;;;23.75;34.40
69035;BME280;56091;55.756;37.412;2022-07-31T17:29:23;99226.63;;;23.55;34.93
69035;BME280;56091;55.756;37.412;2022-07-31T17:34:24;99219.59;;;23.33;35.30
69035;BME280;56091;55.756;37.412;2022-07-31T17:39:24;99233.34;;;23.21;35.53
69035;BME280;56091;55.756;37.412;2022-07-31T17:44:25;99228.31;;;23.02;35.58
69035;BME280;56091;55.756;37.412;2022-07-31T17:49:26;99232.72;;;22.81;36.52
69035;BME280;56091;55.756;37.412;2022-07-31T17:54:28;99243.72;;;22.60;36.24
69035;BME280;56091;55.756;37.412;2022-07-31T17:59:36;99245.97;;;22.46;36.61
69035;BME280;56091;55.756;37.412;2022-07-31T18:04:38;99233.63;;;22.31;37.00
69035;BME280;56091;55.756;37.412;2022-07-31T18:09:40;99239.47;;;22.21;37.07
69035;BME280;56091;55.756;37.412;2022-07-31T18:14:43;99242.66;;;22.23;37.09
69035;BME280;56091;55.756;37.412;2022-07-31T18:19:46;99224.91;;;21.99;37.37
69035;BME280;56091;55.756;37.412;2022-07-31T18:24:47;99233.47;;;21.98;37.77
69035;BME280;56091;55.756;37.412;2022-07-31T18:29:48;99232.84;;;21.92;37.98
69035;BME280;56091;55.756;37.412;2022-07-31T18:34:49;99245.25;;;21.98;37.96
69035;BME280;56091;55.756;37.412;2022-07-31T18:39:50;99243.91;;;21.83;38.35
69035;BME280;56091;55.756;37.412;2022-07-31T18:44:57;99200.13;;;21.49;38.83
69035;BME280;56091;55.756;37.412;2022-07-31T18:49:58;99223.69;;;21.50;39.59
69035;BME280;56091;55.756;37.412;2022-07-31T18:55:01;99216.09;;;21.38;39.87
69035;BME280;56091;55.756;37.412;2022-07-31T19:00:05;99233.72;;;21.37;39.78
69035;BME280;56091;55.756;37.412;2022-07-31T19:05:06;99239.38;;;21.32;40.67
69035;BME280;56091;55.756;37.412;2022-07-31T19:10:07;99245.53;;;21.29;40.11
69035;BME280;56091;55.756;37.412;2022-07-31T19:15:11;99220.44;;;20.92;40.96
69035;BME280;56091;55.756;37.412;2022-07-31T19:20:12;99255.41;;;21.03;41.05
69035;BME280;56091;55.756;37.412;2022-07-31T19:25:13;99253.66;;;20.99;40.73
69035;BME280;56091;55.756;37.412;2022-07-31T19:30:14;99257.34;;;20.94;40.92
69035;BME280;56091;55.756;37.412;2022-07-31T19:35:15;99225.94;;;20.74;41.47
69035;BME280;56091;55.756;37.412;2022-07-31T19:40:16;99240.13;;;20.76;41.52
69035;BME280;56091;55.756;37.412;2022-07-31T19:45:17;99254.16;;;20.83;40.98
69035;BME280;56091;55.756;37.412;2022-07-31T19:50:18;99231.72;;;20.64;41.42
69035;BME280;56091;55.756;37.412;2022-07-31T19:55:19;99230.91;;;20.55;41.83
69035;BME280;56091;55.756;37.412;2022-07-31T20:00:24;99255.75;;;20.67;41.48
69035;BME280;56091;55.756;37.412;2022-07-31T20:05:25;99236.38;;;20.46;41.72
69035;BME280;56091;55.756;37.412;2022-07-31T20:10:27;99253.31;;;20.57;42.07
69035;BME280;56091;55.756;37.412;2022-07-31T20:15:30;99253.63;;;20.46;42.11
69035;BME280;56091;55.756;37.412;2022-07-31T20:20:31;99234.28;;;20.25;42.84
69035;BME280;56091;55.756;37.412;2022-07-31T20:25:32;99256.53;;;20.41;42.62
69035;BME280;56091;55.756;37.412;2022-07-31T20:30:35;99260.53;;;20.35;42.60
69035;BME280;56091;55.756;37.412;2022-07-31T20:35:35;99241.34;;;20.18;42.66
69035;BME280;56091;55.756;37.412;2022-07-31T20:40:37;99264.38;;;20.25;43.26
69035;BME280;56091;55.756;37.412;2022-07-31T20:45:38;99256.63;;;20.10;43.44
69035;BME280;56091;55.756;37.412;2022-07-31T20:50:39;99261.78;;;20.12;43.43
69035;BME280;56091;55.756;37.412;2022-07-31T20:55:40;99256.16;;;20.08;44.12
69035;BME280;56091;55.756;37.412;2022-07-31T21:00:41;99269.53;;;20.09;44.29
69035;BME280;56091;55.756;37.412;2022-07-31T21:05:45;99274.03;;;20.05;44.91
69035;BME280;56091;55.756;37.412;2022-07-31T21:10:49;99268.34;;;19.93;44.49
69035;BME280;56091;55.756;37.412;2022-07-31T21:15:50;99269.63;;;19.87;44.67
69035;BME280;56091;55.756;37.412;2022-07-31T21:20:51;99274.59;;;19.85;45.25
69035;BME280;56091;55.756;37.412;2022-07-31T21:25:56;99276.19;;;19.77;44.63
69035;BME280;56091;55.756;37.412;2022-07-31T21:30:58;99273.94;;;19.79;44.51
69035;BME280;56091;55.756;37.412;2022-07-31T21:35:59;99264.53;;;19.72;44.35
69035;BME280;56091;55.756;37.412;2022-07-31T21:41:01;99268.91;;;19.73;43.91
69035;BME280;56091;55.756;37.412;2022-07-31T21:46:02;99253.31;;;19.73;43.58
69035;BME280;56091;55.756;37.412;2022-07-31T21:51:04;99259.59;;;19.74;43.94
69035;BME280;56091;55.756;37.412;2022-07-31T21:56:07;99268.63;;;19.83;43.57
69035;BME280;56091;55.756;37.412;2022-07-31T22:01:09;99271.19;;;19.79;43.93
69035;BME280;56091;55.756;37.412;2022-07-31T22:06:11;99269.09;;;19.76;43.71
69035;BME280;56091;55.756;37.412;2022-07-31T22:11:33;99263.06;;;19.65;43.73
69035;BME280;56091;55.756;37.412;2022-07-31T22:16:36;99273.56;;;19.72;44.91
69035;BME280;56091;55.756;37.412;2022-07-31T22:21:37;99269.97;;;19.63;44.90
69035;BME280;56091;55.756;37.412;2022-07-31T22:26:41;99280.91;;;19.63;44.26
69035;BME280;56091;55.756;37.412;2022-07-31T22:32:02;99285.41;;;19.59;44.35
69035;BME280;56091;55.756;37.412;2022-07-31T22:37:05;99282.59;;;19.50;44.51
69035;BME280;56091;55.756;37.412;2022-07-31T22:42:11;99279.88;;;19.50;44.54
69035;BME280;56091;55.756;37.412;2022-07-31T22:47:17;99264.06;;;19.38;45.69
69035;BME280;56091;55.756;37.412;2022-07-31T22:52:19;99282.28;;;19.43;46.25
69035;BME280;56091;55.756;37.412;2022-07-31T22:57:21;99283.88;;;19.44;46.30
69035;BME280;56091;55.756;37.412;2022-07-31T23:02:21;99288.84;;;19.42;46.25
69035;BME280;56091;55.756;37.412;2022-07-31T23:07:22;99287.75;;;19.43;46.97
69035;BME280;56091;55.756;37.412;2022-07-31T23:12:23;99300.75;;;19.37;46.92
69035;BME280;56091;55.756;37.412;2022-07-31T23:17:24;99291.38;;;19.29;46.90
69035;BME280;56091;55.756;37.412;2022-07-31T23:22:25;99293.59;;;19.27;47.17
69035;BME280;56091;55.756;37.412;2022-07-31T23:27:27;99297.75;;;19.25;47.16
69035;BME280;56091;55.756;37.412;2022-07-31T23:32:28;99268.88;;;19.10;47.43
69035;BME280;56091;55.756;37.412;2022-07-31T23:37:29;99296.47;;;19.22;47.84
69035;BME280;56091;55.756;37.412;2022-07-31T23:42:29;99293.91;;;19.26;47.23
69035;BME280;56091;55.756;37.412;2022-07-31T23:47:39;99297.75;;;19.25;46.82
69035;BME280;56091;55.756;37.412;2022-07-31T23:52:41;99297.31;;;19.31;46.96
69035;BME280;56091;55.756;37.412;2022-07-31T23:57:42;99302.78;;;19.31;47.10
